This is the latest recevied weather packets stored in our database for station/object OK2ILA-10. If no packets are shown the sender has not sent any weather packets the latest 10 day(s).
| Time | Temp. | Humidity | Pressure | Rain* | Wind** | Luminosity | Snow |
|---|---|---|---|---|---|---|---|
| 1778057803 | 21.67° C | 55% | 1009.7 hPa | - | - | - | - |
| 1778057203 | 22.22° C | 53% | 1009.7 hPa | - | - | - | - |
| 1778056607 | 20.56° C | 57% | 1009.6 hPa | - | - | - | - |
| 1778056603 | 20.56° C | 57% | 1009.6 hPa | - | - | - | - |
| 1778056007 | 20.56° C | 56% | 1009.5 hPa | - | - | - | - |
| 1778056003 | 20.56° C | 56% | 1009.5 hPa | - | - | - | - |
| 1778055403 | 21.11° C | 53% | 1009.4 hPa | - | - | - | - |
| 1778054806 | 22.22° C | 52% | 1009.3 hPa | - | - | - | - |
| 1778054802 | 22.22° C | 52% | 1009.3 hPa | - | - | - | - |
| 1778054206 | 22.22° C | 53% | 1009.3 hPa | - | - | - | - |
| 1778054202 | 22.22° C | 53% | 1009.3 hPa | - | - | - | - |
| 1778053606 | 22.78° C | 52% | 1009.3 hPa | - | - | - | - |
| 1778053602 | 22.78° C | 52% | 1009.3 hPa | - | - | - | - |
| 1778053006 | 22.78° C | 53% | 1009.3 hPa | - | - | - | - |
| 1778053002 | 22.78° C | 53% | 1009.3 hPa | - | - | - | - |
| 1778052405 | 22.22° C | 54% | 1009.1 hPa | - | - | - | - |
| 1778052402 | 22.22° C | 54% | 1009.1 hPa | - | - | - | - |
| 1778051805 | 21.67° C | 55% | 1009.2 hPa | - | - | - | - |
| 1778051801 | 21.67° C | 55% | 1009.2 hPa | - | - | - | - |
| 1778051205 | 22.22° C | 54% | 1009.2 hPa | - | - | - | - |
| 1778051201 | 22.22° C | 54% | 1009.2 hPa | - | - | - | - |
| 1778050606 | 21.11° C | 55% | 1009.2 hPa | - | - | - | - |
| 1778050601 | 21.11° C | 55% | 1009.2 hPa | - | - | - | - |
| 1778050006 | 21.11° C | 56% | 1009.2 hPa | - | - | - | - |
| 1778050000 | 21.11° C | 56% | 1009.2 hPa | - | - | - | - |
* Rain since midnight (hover to see other rain measurements)
** Current wind speed in m/s (hover to see current wind gust speed)